BAW639 EKCH-EGLL
Flight info
| Callsign | BAW639 |
|---|---|
| Flight time | N/A |
| Altitude | 38000 |
| Route | LANGO2A LANGO DCT RAXLU DCT JUIST DCT ABNED L980 LOGAN LOGAN2H |
| Aircraft | B752/M-SDE2E3FGHIJ3J4J7RWXY/LB1 |
Departure
| Time | 2026-05-05 16:54 |
|---|---|
| Airport | Copenhagen Kastrup Airport (EKCH) |
Arrival
| Time | N/A |
|---|---|
| Airport | London Heathrow Airport (EGLL) |
| Time | Latitude | Longitude | Altitude | Speed | Heading |
|---|---|---|---|---|---|
| 2026-05-05 16:30 | 55.62429 | 12.65053 | 21 ft | 0 kts | 269° |
| 2026-05-05 16:42 | 55.62429 | 12.65073 | 20 ft | 2 kts | 268° |
| 2026-05-05 16:42 | 55.62430 | 12.65099 | 20 ft | 2 kts | 268° |
| 2026-05-05 16:42 | 55.62430 | 12.65116 | 21 ft | 2 kts | 269° |
| 2026-05-05 16:42 | 55.62432 | 12.65142 | 21 ft | 2 kts | 248° |
| 2026-05-05 16:43 | 55.62440 | 12.65166 | 20 ft | 2 kts | 231° |
| 2026-05-05 16:43 | 55.62451 | 12.65184 | 20 ft | 2 kts | 213° |
| 2026-05-05 16:43 | 55.62464 | 12.65195 | 21 ft | 2 kts | 196° |
| 2026-05-05 16:43 | 55.62477 | 12.65199 | 21 ft | 0 kts | 180° |
| 2026-05-05 16:44 | 55.62484 | 12.65199 | 21 ft | 0 kts | 178° |
| 2026-05-05 16:48 | 55.62455 | 12.65199 | 20 ft | 11 kts | 179° |
| 2026-05-05 16:49 | 55.62349 | 12.65204 | 20 ft | 15 kts | 179° |
| 2026-05-05 16:49 | 55.62277 | 12.65199 | 19 ft | 8 kts | 181° |
| 2026-05-05 16:49 | 55.62195 | 12.65164 | 18 ft | 16 kts | 210° |
| 2026-05-05 16:49 | 55.62093 | 12.65047 | 17 ft | 16 kts | 213° |
| 2026-05-05 16:50 | 55.62000 | 12.64941 | 17 ft | 14 kts | 213° |
| 2026-05-05 16:50 | 55.61919 | 12.64846 | 17 ft | 13 kts | 213° |
| 2026-05-05 16:50 | 55.61839 | 12.64753 | 17 ft | 13 kts | 213° |
| 2026-05-05 16:50 | 55.61768 | 12.64672 | 17 ft | 10 kts | 213° |
| 2026-05-05 16:51 | 55.61666 | 12.64556 | 17 ft | 24 kts | 213° |
| 2026-05-05 16:51 | 55.61511 | 12.64376 | 17 ft | 27 kts | 213° |
| 2026-05-05 16:51 | 55.61357 | 12.64200 | 18 ft | 25 kts | 213° |
| 2026-05-05 16:51 | 55.61219 | 12.64041 | 18 ft | 22 kts | 213° |
| 2026-05-05 16:52 | 55.61092 | 12.63896 | 19 ft | 19 kts | 213° |
| 2026-05-05 16:52 | 55.60983 | 12.63770 | 18 ft | 17 kts | 213° |
| 2026-05-05 16:52 | 55.60890 | 12.63664 | 18 ft | 14 kts | 213° |
| 2026-05-05 16:52 | 55.60804 | 12.63588 | 17 ft | 11 kts | 174° |
| 2026-05-05 16:53 | 55.60738 | 12.63683 | 17 ft | 13 kts | 131° |
| 2026-05-05 16:53 | 55.60688 | 12.63840 | 17 ft | 15 kts | 88° |
| 2026-05-05 16:53 | 55.60774 | 12.64023 | 17 ft | 38 kts | 42° |
| 2026-05-05 16:53 | 55.61220 | 12.64715 | 19 ft | 132 kts | 40° |
| 2026-05-05 16:54 | 55.62044 | 12.65989 | 504 ft | 171 kts | 39° |
| 2026-05-05 16:54 | 55.62815 | 12.67249 | 1793 ft | 148 kts | 39° |
| 2026-05-05 16:54 | 55.63662 | 12.68548 | 2186 ft | 174 kts | 39° |
| 2026-05-05 16:54 | 55.64631 | 12.70060 | 2729 ft | 195 kts | 40° |
| 2026-05-05 16:55 | 55.65712 | 12.71677 | 3402 ft | 212 kts | 38° |
| 2026-05-05 16:55 | 55.66901 | 12.73426 | 4040 ft | 231 kts | 39° |
| 2026-05-05 16:55 | 55.68158 | 12.75291 | 4689 ft | 250 kts | 39° |
| 2026-05-05 16:55 | 55.69548 | 12.77361 | 5492 ft | 264 kts | 38° |
| 2026-05-05 16:56 | 55.70954 | 12.79463 | 6480 ft | 269 kts | 39° |
| 2026-05-05 16:56 | 55.72135 | 12.82070 | 7317 ft | 281 kts | 64° |
| 2026-05-05 16:56 | 55.72537 | 12.85548 | 8148 ft | 292 kts | 93° |
| 2026-05-05 16:56 | 55.71986 | 12.89050 | 8981 ft | 299 kts | 121° |
| 2026-05-05 16:57 | 55.70603 | 12.91768 | 9833 ft | 300 kts | 149° |
| 2026-05-05 16:57 | 55.68716 | 12.93228 | 10462 ft | 304 kts | 173° |
| 2026-05-05 16:57 | 55.66537 | 12.93417 | 10838 ft | 318 kts | 187° |
| 2026-05-05 16:57 | 55.64262 | 12.93273 | 11341 ft | 335 kts | 185° |
| 2026-05-05 16:58 | 55.61962 | 12.92860 | 12226 ft | 331 kts | 199° |
| 2026-05-05 16:58 | 55.59864 | 12.91296 | 13100 ft | 327 kts | 217° |
| 2026-05-05 16:58 | 55.58149 | 12.88769 | 13978 ft | 325 kts | 227° |
| 2026-05-05 16:58 | 55.56500 | 12.85917 | 14828 ft | 328 kts | 227° |
| 2026-05-05 16:59 | 55.54876 | 12.83070 | 15661 ft | 331 kts | 228° |
| 2026-05-05 16:59 | 55.53263 | 12.80132 | 16466 ft | 333 kts | 233° |
| 2026-05-05 16:59 | 55.52062 | 12.76720 | 17223 ft | 333 kts | 249° |
| 2026-05-05 16:59 | 55.51506 | 12.72780 | 17958 ft | 334 kts | 264° |
| 2026-05-05 17:00 | 55.51325 | 12.68784 | 18630 ft | 338 kts | 265° |
| 2026-05-05 17:00 | 55.51141 | 12.64606 | 19407 ft | 341 kts | 265° |
| 2026-05-05 17:00 | 55.50972 | 12.60529 | 20086 ft | 344 kts | 265° |
| 2026-05-05 17:00 | 55.50806 | 12.56387 | 20779 ft | 347 kts | 265° |
| 2026-05-05 17:01 | 55.50637 | 12.52090 | 21462 ft | 350 kts | 265° |
| 2026-05-05 17:01 | 55.50470 | 12.47828 | 22130 ft | 353 kts | 265° |
| 2026-05-05 17:01 | 55.50300 | 12.43492 | 22765 ft | 356 kts | 265° |
| 2026-05-05 17:01 | 55.50127 | 12.39106 | 23392 ft | 360 kts | 265° |
| 2026-05-05 17:02 | 55.49958 | 12.34821 | 23979 ft | 363 kts | 265° |
| 2026-05-05 17:02 | 55.49778 | 12.30497 | 24548 ft | 366 kts | 263° |
| 2026-05-05 17:02 | 55.49289 | 12.26120 | 25129 ft | 368 kts | 252° |
| 2026-05-05 17:02 | 55.48287 | 12.21965 | 25696 ft | 373 kts | 242° |
| 2026-05-05 17:03 | 55.46832 | 12.18113 | 26263 ft | 377 kts | 236° |
| 2026-05-05 17:03 | 55.45317 | 12.14448 | 26826 ft | 379 kts | 236° |
| 2026-05-05 17:03 | 55.43780 | 12.10763 | 27346 ft | 382 kts | 236° |
| 2026-05-05 17:03 | 55.42184 | 12.06981 | 27874 ft | 384 kts | 236° |
| 2026-05-05 17:04 | 55.40587 | 12.03223 | 28375 ft | 387 kts | 236° |
| 2026-05-05 17:04 | 55.38957 | 11.99407 | 28877 ft | 389 kts | 236° |
| 2026-05-05 17:04 | 55.37355 | 11.95669 | 29340 ft | 392 kts | 236° |
| 2026-05-05 17:04 | 55.35744 | 11.91921 | 29792 ft | 394 kts | 236° |
| 2026-05-05 17:05 | 55.34098 | 11.88100 | 30244 ft | 396 kts | 235° |
| 2026-05-05 17:05 | 55.32431 | 11.84237 | 30638 ft | 400 kts | 236° |
| 2026-05-05 17:05 | 55.30730 | 11.80303 | 31016 ft | 403 kts | 236° |
| 2026-05-05 17:05 | 55.29018 | 11.76353 | 31510 ft | 402 kts | 235° |
| 2026-05-05 17:06 | 55.27320 | 11.72438 | 31946 ft | 402 kts | 236° |
| 2026-05-05 17:06 | 55.25609 | 11.68497 | 32364 ft | 403 kts | 235° |
| 2026-05-05 17:06 | 55.24006 | 11.64475 | 32769 ft | 401 kts | 240° |
| 2026-05-05 17:06 | 55.22530 | 11.60385 | 33170 ft | 401 kts | 239° |
| 2026-05-05 17:07 | 55.21019 | 11.56264 | 33561 ft | 401 kts | 239° |
| 2026-05-05 17:07 | 55.19486 | 11.52102 | 33926 ft | 402 kts | 239° |
| 2026-05-05 17:07 | 55.17968 | 11.47992 | 34288 ft | 402 kts | 239° |
| 2026-05-05 17:07 | 55.16452 | 11.43899 | 34618 ft | 402 kts | 239° |
| 2026-05-05 17:08 | 55.14907 | 11.39737 | 34921 ft | 402 kts | 239° |
| 2026-05-05 17:08 | 55.13372 | 11.35612 | 35184 ft | 402 kts | 239° |
| 2026-05-05 17:08 | 55.11886 | 11.31625 | 35412 ft | 403 kts | 238° |
| 2026-05-05 17:08 | 55.10358 | 11.27537 | 35659 ft | 403 kts | 238° |
| 2026-05-05 17:09 | 55.08808 | 11.23394 | 35885 ft | 403 kts | 238° |
| 2026-05-05 17:09 | 55.07268 | 11.19285 | 36060 ft | 404 kts | 238° |
| 2026-05-05 17:09 | 55.05743 | 11.15225 | 36277 ft | 403 kts | 238° |
| 2026-05-05 17:09 | 55.04196 | 11.11111 | 36466 ft | 404 kts | 238° |
| 2026-05-05 17:10 | 55.02652 | 11.07010 | 36686 ft | 405 kts | 238° |
| 2026-05-05 17:10 | 55.01098 | 11.02890 | 36932 ft | 405 kts | 238° |
| 2026-05-05 17:10 | 54.99553 | 10.98803 | 37214 ft | 405 kts | 238° |
| 2026-05-05 17:10 | 54.98008 | 10.94725 | 37443 ft | 405 kts | 238° |
| 2026-05-05 17:11 | 54.96454 | 10.90627 | 37670 ft | 405 kts | 237° |
| 2026-05-05 17:11 | 54.94896 | 10.86526 | 37856 ft | 404 kts | 237° |
| 2026-05-05 17:11 | 54.91800 | 10.78580 | 37910 ft | 400 kts | 237° |
| 2026-05-05 17:12 | 54.88671 | 10.70596 | 37901 ft | 403 kts | 237° |
| 2026-05-05 17:12 | 54.85511 | 10.62562 | 37905 ft | 402 kts | 237° |
| 2026-05-05 17:13 | 54.82354 | 10.54560 | 37917 ft | 402 kts | 237° |
| 2026-05-05 17:13 | 54.79196 | 10.46580 | 37913 ft | 403 kts | 237° |
| 2026-05-05 17:14 | 54.76006 | 10.38545 | 37909 ft | 404 kts | 237° |
| 2026-05-05 17:14 | 54.72843 | 10.30606 | 37906 ft | 403 kts | 236° |
| 2026-05-05 17:15 | 54.69952 | 10.22346 | 37910 ft | 402 kts | 241° |
| 2026-05-05 17:15 | 54.67254 | 10.13991 | 37908 ft | 402 kts | 241° |
| 2026-05-05 17:16 | 54.64554 | 10.05641 | 37904 ft | 403 kts | 241° |
| 2026-05-05 17:16 | 54.61833 | 9.97251 | 37907 ft | 403 kts | 241° |
| 2026-05-05 17:17 | 54.59105 | 9.88865 | 37915 ft | 402 kts | 241° |
| 2026-05-05 17:17 | 54.56366 | 9.80475 | 37908 ft | 403 kts | 241° |
| 2026-05-05 17:18 | 54.53616 | 9.72083 | 37902 ft | 402 kts | 241° |
| 2026-05-05 17:18 | 54.50857 | 9.63686 | 37905 ft | 403 kts | 241° |
| 2026-05-05 17:19 | 54.48094 | 9.55309 | 37906 ft | 402 kts | 241° |
| 2026-05-05 17:19 | 54.45338 | 9.46983 | 37900 ft | 401 kts | 241° |
| 2026-05-05 17:20 | 54.42570 | 9.38645 | 37899 ft | 402 kts | 241° |
| 2026-05-05 17:20 | 54.39785 | 9.30289 | 37906 ft | 403 kts | 240° |
| 2026-05-05 17:21 | 54.37003 | 9.21969 | 37903 ft | 402 kts | 240° |
| 2026-05-05 17:22 | 54.32822 | 9.09518 | 37896 ft | 401 kts | 240° |
| 2026-05-05 17:22 | 54.30052 | 9.01301 | 37892 ft | 401 kts | 240° |
| 2026-05-05 17:23 | 54.27243 | 8.93000 | 37892 ft | 402 kts | 240° |
| 2026-05-05 17:23 | 54.24426 | 8.84703 | 37892 ft | 402 kts | 240° |
| 2026-05-05 17:24 | 54.21611 | 8.76441 | 37893 ft | 401 kts | 240° |
| 2026-05-05 17:24 | 54.18805 | 8.68231 | 37898 ft | 403 kts | 240° |
| 2026-05-05 17:25 | 54.15985 | 8.60007 | 37897 ft | 403 kts | 240° |
| 2026-05-05 17:25 | 54.13141 | 8.51742 | 37896 ft | 402 kts | 240° |
| 2026-05-05 17:26 | 54.10307 | 8.43535 | 37901 ft | 404 kts | 240° |
| 2026-05-05 17:26 | 54.07467 | 8.35337 | 37897 ft | 403 kts | 240° |
| 2026-05-05 17:27 | 54.04609 | 8.27115 | 37909 ft | 403 kts | 239° |
| 2026-05-05 17:27 | 54.01758 | 8.18939 | 37912 ft | 403 kts | 239° |
| 2026-05-05 17:28 | 53.98884 | 8.10725 | 37917 ft | 404 kts | 239° |
| 2026-05-05 17:28 | 53.96031 | 8.02596 | 37903 ft | 403 kts | 239° |
| 2026-05-05 17:29 | 53.93144 | 7.94399 | 37900 ft | 403 kts | 239° |
| 2026-05-05 17:29 | 53.90260 | 7.86238 | 37892 ft | 403 kts | 239° |
| 2026-05-05 17:30 | 53.87374 | 7.78099 | 37905 ft | 404 kts | 239° |
| 2026-05-05 17:30 | 53.84483 | 7.69970 | 37897 ft | 405 kts | 239° |
| 2026-05-05 17:31 | 53.81572 | 7.61815 | 37907 ft | 404 kts | 239° |
| 2026-05-05 17:31 | 53.78661 | 7.53684 | 37909 ft | 405 kts | 239° |
| 2026-05-05 17:32 | 53.75742 | 7.45558 | 37898 ft | 405 kts | 239° |
| 2026-05-05 17:32 | 53.72834 | 7.37490 | 37911 ft | 405 kts | 239° |
| 2026-05-05 17:33 | 53.69900 | 7.29375 | 37918 ft | 405 kts | 238° |
| 2026-05-05 17:33 | 53.66959 | 7.21269 | 37919 ft | 405 kts | 238° |
| 2026-05-05 17:34 | 53.64010 | 7.13165 | 37919 ft | 406 kts | 238° |
| 2026-05-05 17:34 | 53.61033 | 7.05011 | 37917 ft | 407 kts | 238° |
| 2026-05-05 17:35 | 53.58083 | 6.96958 | 37906 ft | 407 kts | 238° |
| 2026-05-05 17:35 | 53.54974 | 6.89007 | 37934 ft | 406 kts | 234° |
| 2026-05-05 17:36 | 53.51659 | 6.81191 | 37909 ft | 409 kts | 234° |
| 2026-05-05 17:36 | 53.48371 | 6.73476 | 37922 ft | 408 kts | 234° |
| 2026-05-05 17:37 | 53.45071 | 6.65758 | 37910 ft | 408 kts | 234° |
| 2026-05-05 17:37 | 53.41760 | 6.58045 | 37916 ft | 408 kts | 234° |
| 2026-05-05 17:38 | 53.38438 | 6.50329 | 37910 ft | 408 kts | 234° |
| 2026-05-05 17:38 | 53.35139 | 6.42691 | 37909 ft | 409 kts | 234° |
| 2026-05-05 17:39 | 53.31789 | 6.34958 | 37907 ft | 409 kts | 233° |
| 2026-05-05 17:39 | 53.28507 | 6.27403 | 37904 ft | 409 kts | 233° |
| 2026-05-05 17:40 | 53.25258 | 6.19949 | 37902 ft | 409 kts | 233° |
| 2026-05-05 17:40 | 53.21910 | 6.12290 | 37911 ft | 410 kts | 233° |
| 2026-05-05 17:41 | 53.18617 | 6.04779 | 37909 ft | 410 kts | 233° |
| 2026-05-05 17:41 | 53.15264 | 5.97154 | 37915 ft | 410 kts | 233° |
| 2026-05-05 17:42 | 53.14151 | 5.94627 | 37905 ft | 411 kts | 233° |
| 2026-05-05 17:42 | 53.08533 | 5.81918 | 37904 ft | 410 kts | 233° |
| 2026-05-05 17:43 | 53.05187 | 5.74377 | 37913 ft | 412 kts | 233° |
| 2026-05-05 17:43 | 53.01774 | 5.66707 | 37905 ft | 412 kts | 233° |
| 2026-05-05 17:44 | 52.98366 | 5.59075 | 37900 ft | 410 kts | 233° |
| 2026-05-05 17:44 | 52.94962 | 5.51471 | 37898 ft | 410 kts | 233° |
| 2026-05-05 17:45 | 52.91534 | 5.43839 | 37893 ft | 412 kts | 233° |
| 2026-05-05 17:45 | 52.88103 | 5.36224 | 37908 ft | 412 kts | 233° |
| 2026-05-05 17:46 | 52.84699 | 5.28690 | 37925 ft | 413 kts | 232° |
| 2026-05-05 17:46 | 52.81261 | 5.21102 | 37917 ft | 413 kts | 232° |
| 2026-05-05 17:47 | 52.77804 | 5.13496 | 37926 ft | 414 kts | 232° |
| 2026-05-05 17:47 | 52.74341 | 5.05901 | 37915 ft | 415 kts | 232° |
| 2026-05-05 17:48 | 52.70882 | 4.98334 | 37918 ft | 414 kts | 232° |
| 2026-05-05 17:48 | 52.67404 | 4.90751 | 37914 ft | 413 kts | 232° |
| 2026-05-05 17:49 | 52.63950 | 4.83242 | 37904 ft | 415 kts | 232° |
| 2026-05-05 17:49 | 52.60465 | 4.75689 | 37911 ft | 414 kts | 232° |
| 2026-05-05 17:50 | 52.56972 | 4.68139 | 37907 ft | 416 kts | 232° |
| 2026-05-05 17:50 | 52.53450 | 4.60550 | 37914 ft | 416 kts | 232° |
| 2026-05-05 17:51 | 52.49952 | 4.53035 | 37918 ft | 417 kts | 232° |
| 2026-05-05 17:51 | 52.46423 | 4.45475 | 37917 ft | 416 kts | 232° |
| 2026-05-05 17:52 | 52.42886 | 4.37921 | 37918 ft | 417 kts | 232° |
| 2026-05-05 17:52 | 52.39399 | 4.30496 | 37917 ft | 416 kts | 231° |
| 2026-05-05 17:53 | 52.35890 | 4.23046 | 37922 ft | 417 kts | 231° |
| 2026-05-05 17:53 | 52.32337 | 4.15524 | 37920 ft | 418 kts | 231° |
| 2026-05-05 17:54 | 52.28791 | 4.08038 | 37926 ft | 418 kts | 231° |
| 2026-05-05 17:54 | 52.25323 | 4.00741 | 37919 ft | 418 kts | 231° |
| 2026-05-05 17:55 | 52.21753 | 3.93248 | 37930 ft | 418 kts | 231° |
| 2026-05-05 17:55 | 52.18187 | 3.85787 | 37916 ft | 419 kts | 231° |
| 2026-05-05 17:56 | 52.14632 | 3.78372 | 37917 ft | 417 kts | 231° |
| 2026-05-05 17:56 | 52.11046 | 3.70912 | 37914 ft | 418 kts | 231° |
| 2026-05-05 17:57 | 52.07467 | 3.63488 | 37912 ft | 419 kts | 231° |
| 2026-05-05 17:57 | 52.03849 | 3.56006 | 37905 ft | 420 kts | 231° |
| 2026-05-05 17:58 | 52.00252 | 3.48587 | 37912 ft | 420 kts | 231° |
| 2026-05-05 17:58 | 51.96635 | 3.41152 | 37917 ft | 422 kts | 231° |
| 2026-05-05 17:59 | 51.93001 | 3.33700 | 37923 ft | 423 kts | 230° |
| 2026-05-05 17:59 | 51.89371 | 3.26280 | 37911 ft | 423 kts | 230° |
| 2026-05-05 18:00 | 51.86012 | 3.18554 | 37929 ft | 424 kts | 242° |
| 2026-05-05 18:00 | 51.84322 | 3.09393 | 37937 ft | 429 kts | 262° |
| 2026-05-05 18:01 | 51.83762 | 2.99815 | 37918 ft | 430 kts | 262° |
| 2026-05-05 18:01 | 51.83155 | 2.90276 | 37912 ft | 418 kts | 262° |
| 2026-05-05 18:02 | 51.82554 | 2.81123 | 37922 ft | 409 kts | 262° |
| 2026-05-05 18:02 | 51.81935 | 2.71920 | 37801 ft | 420 kts | 262° |
| 2026-05-05 18:02 | 51.81611 | 2.67145 | 37389 ft | 424 kts | 262° |
| 2026-05-05 18:03 | 51.81292 | 2.62483 | 37019 ft | 420 kts | 262° |
| 2026-05-05 18:03 | 51.80970 | 2.57802 | 36463 ft | 419 kts | 262° |
| 2026-05-05 18:03 | 51.80649 | 2.53173 | 36060 ft | 416 kts | 261° |
| 2026-05-05 18:03 | 51.80327 | 2.48561 | 35603 ft | 415 kts | 261° |
| 2026-05-05 18:04 | 51.80000 | 2.43903 | 35043 ft | 414 kts | 261° |
| 2026-05-05 18:04 | 51.79679 | 2.39369 | 34234 ft | 414 kts | 261° |
| 2026-05-05 18:04 | 51.79358 | 2.34862 | 33538 ft | 413 kts | 260° |
| 2026-05-05 18:04 | 51.79026 | 2.30209 | 32967 ft | 414 kts | 259° |
| 2026-05-05 18:05 | 51.78694 | 2.25604 | 32449 ft | 419 kts | 260° |
| 2026-05-05 18:05 | 51.78368 | 2.20888 | 31871 ft | 425 kts | 261° |
| 2026-05-05 18:05 | 51.78093 | 2.16101 | 31258 ft | 427 kts | 261° |
| 2026-05-05 18:05 | 51.77818 | 2.11379 | 30680 ft | 426 kts | 261° |
| 2026-05-05 18:06 | 51.77537 | 2.06608 | 30125 ft | 420 kts | 262° |
| 2026-05-05 18:06 | 51.77356 | 2.03550 | 29752 ft | 417 kts | 262° |
| 2026-05-05 18:06 | 51.76985 | 1.97344 | 29011 ft | 412 kts | 262° |
| 2026-05-05 18:06 | 51.76707 | 1.92731 | 28484 ft | 410 kts | 262° |
| 2026-05-05 18:07 | 51.76432 | 1.88219 | 27969 ft | 408 kts | 263° |
| 2026-05-05 18:07 | 51.76155 | 1.83664 | 27448 ft | 405 kts | 263° |
| 2026-05-05 18:07 | 51.75879 | 1.79171 | 26936 ft | 402 kts | 263° |
| 2026-05-05 18:07 | 51.75609 | 1.74808 | 26444 ft | 400 kts | 263° |
| 2026-05-05 18:08 | 51.75332 | 1.70366 | 25946 ft | 396 kts | 263° |
| 2026-05-05 18:08 | 51.75061 | 1.66030 | 25453 ft | 394 kts | 264° |
| 2026-05-05 18:08 | 51.74782 | 1.61594 | 24960 ft | 390 kts | 264° |
| 2026-05-05 18:08 | 51.74509 | 1.57292 | 24409 ft | 390 kts | 264° |
| 2026-05-05 18:09 | 51.74231 | 1.52935 | 23782 ft | 388 kts | 265° |
| 2026-05-05 18:09 | 51.73955 | 1.48626 | 23184 ft | 383 kts | 265° |
| 2026-05-05 18:09 | 51.73685 | 1.44420 | 22591 ft | 378 kts | 265° |
| 2026-05-05 18:09 | 51.73414 | 1.40240 | 22008 ft | 373 kts | 265° |
| 2026-05-05 18:10 | 51.73143 | 1.36078 | 21435 ft | 371 kts | 265° |
| 2026-05-05 18:10 | 51.72881 | 1.32073 | 20888 ft | 369 kts | 264° |
| 2026-05-05 18:10 | 51.72613 | 1.28028 | 20338 ft | 367 kts | 264° |
| 2026-05-05 18:10 | 51.72343 | 1.23940 | 19782 ft | 365 kts | 264° |
| 2026-05-05 18:11 | 51.72075 | 1.19914 | 19243 ft | 362 kts | 264° |
| 2026-05-05 18:11 | 51.71804 | 1.15880 | 18697 ft | 360 kts | 264° |
| 2026-05-05 18:11 | 51.71536 | 1.11891 | 18163 ft | 357 kts | 264° |
| 2026-05-05 18:11 | 51.71268 | 1.07929 | 17635 ft | 354 kts | 264° |
| 2026-05-05 18:12 | 51.71006 | 1.04070 | 17110 ft | 351 kts | 264° |
| 2026-05-05 18:12 | 51.70739 | 1.00161 | 16593 ft | 348 kts | 264° |
| 2026-05-05 18:12 | 51.70473 | 0.96290 | 16074 ft | 346 kts | 264° |
| 2026-05-05 18:12 | 51.70209 | 0.92469 | 15486 ft | 346 kts | 264° |
| 2026-05-05 18:13 | 51.69949 | 0.88716 | 14760 ft | 346 kts | 264° |
| 2026-05-05 18:13 | 51.69688 | 0.84965 | 14000 ft | 348 kts | 264° |
| 2026-05-05 18:13 | 51.69426 | 0.81237 | 13330 ft | 347 kts | 264° |
| 2026-05-05 18:13 | 51.69159 | 0.77445 | 12699 ft | 337 kts | 265° |
| 2026-05-05 18:14 | 51.68906 | 0.73865 | 12081 ft | 329 kts | 265° |
| 2026-05-05 18:14 | 51.68674 | 0.70601 | 11509 ft | 317 kts | 265° |
| 2026-05-05 18:14 | 51.68418 | 0.67008 | 10866 ft | 315 kts | 265° |
| 2026-05-05 18:14 | 51.68170 | 0.63523 | 10379 ft | 310 kts | 265° |
| 2026-05-05 18:15 | 51.67936 | 0.60290 | 10042 ft | 289 kts | 265° |
| 2026-05-05 18:15 | 51.67712 | 0.57171 | 9892 ft | 288 kts | 265° |
| 2026-05-05 18:15 | 51.67476 | 0.53906 | 9741 ft | 290 kts | 265° |
| 2026-05-05 18:15 | 51.67245 | 0.50720 | 9550 ft | 290 kts | 265° |
| 2026-05-05 18:16 | 51.67010 | 0.47502 | 9423 ft | 288 kts | 265° |
| 2026-05-05 18:16 | 51.66776 | 0.44301 | 9049 ft | 291 kts | 265° |
| 2026-05-05 18:16 | 51.66538 | 0.41072 | 8689 ft | 286 kts | 265° |
| 2026-05-05 18:16 | 51.66307 | 0.37942 | 8370 ft | 281 kts | 265° |
| 2026-05-05 18:17 | 51.66076 | 0.34826 | 8057 ft | 281 kts | 265° |
| 2026-05-05 18:17 | 51.65851 | 0.31793 | 7761 ft | 282 kts | 265° |
| 2026-05-05 18:17 | 51.65617 | 0.28655 | 7440 ft | 280 kts | 265° |
| 2026-05-05 18:17 | 51.65390 | 0.25637 | 7474 ft | 272 kts | 265° |
| 2026-05-05 18:18 | 51.65183 | 0.22871 | 7618 ft | 280 kts | 265° |
| 2026-05-05 18:18 | 51.64934 | 0.19560 | 7778 ft | 282 kts | 265° |
| 2026-05-05 18:18 | 51.64703 | 0.16509 | 7916 ft | 283 kts | 265° |
| 2026-05-05 18:18 | 51.64481 | 0.13338 | 7930 ft | 284 kts | 266° |
| 2026-05-05 18:19 | 51.64290 | 0.10260 | 7930 ft | 282 kts | 266° |
| 2026-05-05 18:19 | 51.64112 | 0.07373 | 7940 ft | 281 kts | 266° |
| 2026-05-05 18:19 | 51.63774 | 0.01934 | 7935 ft | 282 kts | 266° |
| 2026-05-05 18:20 | 51.63602 | -0.00791 | 7937 ft | 282 kts | 266° |
| 2026-05-05 18:20 | 51.63402 | -0.03926 | 7939 ft | 282 kts | 266° |
| 2026-05-05 18:20 | 51.63240 | -0.06461 | 7937 ft | 282 kts | 266° |
| 2026-05-05 18:20 | 51.63115 | -0.08421 | 7935 ft | 282 kts | 266° |
| 2026-05-05 18:21 | 51.62926 | -0.11368 | 7938 ft | 282 kts | 266° |
| 2026-05-05 18:21 | 51.62718 | -0.14609 | 7945 ft | 282 kts | 266° |
| 2026-05-05 18:21 | 51.62534 | -0.17483 | 7937 ft | 282 kts | 266° |
| 2026-05-05 18:21 | 51.62392 | -0.19697 | 7930 ft | 282 kts | 266° |
| 2026-05-05 18:22 | 51.62211 | -0.22559 | 7941 ft | 282 kts | 266° |
| 2026-05-05 18:22 | 51.62017 | -0.25658 | 7936 ft | 283 kts | 266° |
| 2026-05-05 18:22 | 51.61840 | -0.28528 | 7938 ft | 282 kts | 266° |
| 2026-05-05 18:22 | 51.61643 | -0.31699 | 7931 ft | 282 kts | 266° |
| 2026-05-05 18:23 | 51.61466 | -0.34545 | 7939 ft | 283 kts | 266° |
| 2026-05-05 18:23 | 51.61114 | -0.40169 | 7938 ft | 282 kts | 266° |
| 2026-05-05 18:23 | 51.60927 | -0.43196 | 7939 ft | 282 kts | 266° |
| 2026-05-05 18:24 | 51.60725 | -0.46470 | 7940 ft | 283 kts | 266° |
| 2026-05-05 18:24 | 51.60511 | -0.49873 | 7939 ft | 282 kts | 266° |
| 2026-05-05 18:24 | 51.60347 | -0.52484 | 7939 ft | 282 kts | 266° |
| 2026-05-05 18:24 | 51.60112 | -0.56170 | 7934 ft | 273 kts | 266° |
| 2026-05-05 18:25 | 51.59914 | -0.59242 | 7942 ft | 275 kts | 266° |
| 2026-05-05 18:25 | 51.59779 | -0.61349 | 7950 ft | 283 kts | 266° |
| 2026-05-05 18:25 | 51.59535 | -0.65141 | 7940 ft | 282 kts | 265° |
| 2026-05-05 18:25 | 51.59328 | -0.68383 | 7940 ft | 281 kts | 265° |
| 2026-05-05 18:26 | 51.59204 | -0.70328 | 7938 ft | 282 kts | 265° |
| 2026-05-05 18:26 | 51.59008 | -0.73443 | 7944 ft | 282 kts | 265° |
| 2026-05-05 18:26 | 51.58812 | -0.76572 | 7945 ft | 283 kts | 265° |
| 2026-05-05 18:26 | 51.58615 | -0.79732 | 7951 ft | 282 kts | 265° |
| 2026-05-05 18:27 | 51.58423 | -0.82809 | 7949 ft | 282 kts | 265° |
| 2026-05-05 18:27 | 51.58227 | -0.85979 | 7947 ft | 282 kts | 265° |
| 2026-05-05 18:27 | 51.58035 | -0.89094 | 7848 ft | 274 kts | 265° |
| 2026-05-05 18:27 | 51.57851 | -0.92102 | 7279 ft | 266 kts | 265° |
| 2026-05-05 18:28 | 51.57490 | -0.97825 | 6265 ft | 251 kts | 261° |
| 2026-05-05 18:28 | 51.56858 | -1.00351 | 5807 ft | 247 kts | 231° |
| 2026-05-05 18:28 | 51.55527 | -1.01981 | 5369 ft | 241 kts | 198° |
| 2026-05-05 18:29 | 51.53901 | -1.02418 | 4914 ft | 237 kts | 181° |
| 2026-05-05 18:29 | 51.52299 | -1.02145 | 4437 ft | 232 kts | 156° |
| 2026-05-05 18:29 | 51.51017 | -1.00716 | 4102 ft | 220 kts | 124° |
| 2026-05-05 18:29 | 51.50174 | -0.98787 | 4021 ft | 209 kts | 120° |
| 2026-05-05 18:30 | 51.49408 | -0.96955 | 4012 ft | 195 kts | 120° |
| 2026-05-05 18:30 | 51.48673 | -0.95226 | 3989 ft | 185 kts | 120° |
| 2026-05-05 18:30 | 51.47937 | -0.93495 | 4022 ft | 193 kts | 118° |
| 2026-05-05 18:30 | 51.47570 | -0.91487 | 4032 ft | 187 kts | 86° |
| 2026-05-05 18:31 | 51.47588 | -0.89414 | 4011 ft | 188 kts | 86° |
| 2026-05-05 18:31 | 51.47586 | -0.87360 | 4004 ft | 185 kts | 86° |
| 2026-05-05 18:31 | 51.47590 | -0.85297 | 4009 ft | 185 kts | 86° |
| 2026-05-05 18:31 | 51.47596 | -0.83211 | 4007 ft | 186 kts | 86° |
| 2026-05-05 18:32 | 51.47604 | -0.81187 | 4008 ft | 185 kts | 85° |
| 2026-05-05 18:32 | 51.47615 | -0.79085 | 3813 ft | 191 kts | 85° |
| 2026-05-05 18:32 | 51.47625 | -0.76950 | 3562 ft | 188 kts | 85° |
| 2026-05-05 18:32 | 51.47635 | -0.74892 | 3323 ft | 187 kts | 85° |
| 2026-05-05 18:33 | 51.47646 | -0.72849 | 3081 ft | 186 kts | 85° |
| 2026-05-05 18:33 | 51.47657 | -0.70803 | 2836 ft | 186 kts | 85° |
| 2026-05-05 18:33 | 51.47667 | -0.68789 | 2595 ft | 186 kts | 85° |
| 2026-05-05 18:33 | 51.47677 | -0.66798 | 2351 ft | 181 kts | 85° |
| 2026-05-05 18:34 | 51.47681 | -0.64917 | 2106 ft | 171 kts | 85° |
| 2026-05-05 18:34 | 51.47689 | -0.63018 | 1897 ft | 177 kts | 85° |
| 2026-05-05 18:34 | 51.47703 | -0.61100 | 1652 ft | 171 kts | 85° |
| 2026-05-05 18:34 | 51.47708 | -0.59333 | 1447 ft | 157 kts | 85° |
| 2026-05-05 18:35 | 51.47711 | -0.57836 | 1251 ft | 152 kts | 84° |
| 2026-05-05 18:35 | 51.47726 | -0.56170 | 1070 ft | 157 kts | 85° |
| 2026-05-05 18:35 | 51.47730 | -0.54810 | 918 ft | 146 kts | 85° |
| 2026-05-05 18:35 | 51.47729 | -0.53368 | 715 ft | 131 kts | 85° |
| 2026-05-05 18:36 | 51.47736 | -0.52369 | 572 ft | 120 kts | 85° |
| 2026-05-05 18:36 | 51.47739 | -0.51968 | 516 ft | 119 kts | 84° |